WXForecasting.com
Aberdeen, SD - Weather Station Data
Daily Summary for August 12, 2017 Units:  Metric    English   Both
« Previous Day
Next Day »
Daily Weekly Monthly Yearly Custom
  High: Low: Average:
Temperature: 25.5 °C 14.5 °C 19.1 °C
Dew Point: 19.4 °C 11.7 °C 15.5 °C
Humidity: 89 % 59 % 80 %
Wind Speed: 19.3 km/h 0 km/h 3.2 km/h
Wind Gust: 24.1 km/h - -
Wind:- - SE
Pressure: 1018.2 hPa 1012.8 hPa -
Precipitation: 2.29 mm    
Historical Graphs
 
 
Tabular Data for August 12, 2017
Time Temperature Dew Point Pressure Wind Wind Speed Wind Gust Humidity Rainfall Rate (Hourly) solar Conditions
00:06 17.2 °C 13.3 °C 1017.5 hPa Calm     79 % 0 mm 0 W/m2
00:22 17.1 °C 13.3 °C 1017.8 hPa Calm   1.6 km/h 79 % 0 mm 0 W/m2
00:36 16.8 °C 13.3 °C 1017.8 hPa Calm     80 % 0 mm 0 W/m2
00:51 16.5 °C 13.3 °C 1017.8 hPa Calm     80 % 0 mm 0 W/m2
01:06 16.3 °C 13.3 °C 1017.8 hPa Calm   1.6 km/h 82 % 0 mm 0 W/m2
01:21 16.3 °C 13.3 °C 1018.2 hPa South 1.6 km/h 1.6 km/h 82 % 0 mm 0 W/m2
01:36 16.3 °C 13.3 °C 1017.8 hPa Calm   1.6 km/h 82 % 0 mm 0 W/m2
01:51 16.1 °C 12.8 °C 1017.8 hPa Calm   1.6 km/h 81 % 0 mm 0 W/m2
02:06 16 °C 12.8 °C 1018.2 hPa Calm     82 % 0 mm 0 W/m2
02:21 15.9 °C 12.8 °C 1017.8 hPa Calm     83 % 0 mm 0 W/m2
02:36 15.8 °C 12.8 °C 1017.8 hPa Calm   4.8 km/h 83 % 0 mm 0 W/m2
02:51 15.7 °C 12.8 °C 1017.8 hPa Calm   4.8 km/h 82 % 0 mm 0 W/m2
03:06 15.5 °C 12.2 °C 1017.8 hPa Calm   1.6 km/h 82 % 0 mm 0 W/m2
03:21 15.4 °C 12.2 °C 1017.8 hPa Calm     82 % 0 mm 0 W/m2
03:36 15.3 °C 12.2 °C 1017.8 hPa Calm     82 % 0 mm 0 W/m2
03:51 15 °C 12.2 °C 1017.8 hPa Calm   3.2 km/h 83 % 0 mm 0 W/m2
04:06 14.8 °C 12.2 °C 1017.8 hPa Calm   3.2 km/h 83 % 0 mm 0 W/m2
04:21 14.7 °C 11.7 °C 1017.8 hPa Calm   1.6 km/h 83 % 0 mm 0 W/m2
04:36 14.5 °C 11.7 °C 1017.8 hPa Calm     84 % 0 mm 0 W/m2
04:51 14.7 °C 12.2 °C 1017.8 hPa Calm   1.6 km/h 85 % 0 mm 0 W/m2
05:06 14.8 °C 12.2 °C 1017.8 hPa Calm   3.2 km/h 84 % 0 mm 0 W/m2
05:21 14.9 °C 12.2 °C 1017.8 hPa Calm   1.6 km/h 85 % 0 mm 0 W/m2
05:37 15.2 °C 12.8 °C 1017.8 hPa Calm   4.8 km/h 85 % 0 mm 0 W/m2
05:51 15.3 °C 12.8 °C 1017.8 hPa SSE 1.6 km/h 1.6 km/h 85 % 0 mm 0 W/m2
06:06 15.3 °C 12.8 °C 1018.2 hPa Calm   1.6 km/h 85 % 0 mm 0 W/m2
06:21 15.3 °C 12.8 °C 1017.8 hPa Calm   1.6 km/h 85 % 0 mm 0 W/m2
06:36 15.2 °C 12.8 °C 1017.8 hPa SSE 1.6 km/h 4.8 km/h 86 % 0 mm 19 W/m2
06:51 15.2 °C 12.8 °C 1017.8 hPa SSE 3.2 km/h 4.8 km/h 86 % 0 mm 14 W/m2
07:06 15.3 °C 13.3 °C 1017.8 hPa Calm   4.8 km/h 86 % 0 mm 16 W/m2
07:21 15.4 °C 13.3 °C 1017.8 hPa Calm   3.2 km/h 86 % 0 mm 35 W/m2
07:37 15.6 °C 13.3 °C 1017.8 hPa Calm   1.6 km/h 86 % 0 mm 95 W/m2
07:52 16.1 °C 13.9 °C 1017.5 hPa Calm   4.8 km/h 87 % 0 mm 139 W/m2
08:07 17.3 °C 15 °C 1017.5 hPa SE 3.2 km/h 12.9 km/h 86 % 0 mm 243 W/m2
08:22 18.1 °C 15.6 °C 1017.5 hPa Calm   6.4 km/h 84 % 0 mm 97 W/m2
08:37 18.1 °C 15.6 °C 1017.5 hPa Calm   4.8 km/h 84 % 0 mm 74 W/m2
08:52 18.3 °C 15.6 °C 1017.5 hPa Calm   3.2 km/h 84 % 0 mm 121 W/m2
09:07 19.1 °C 16.1 °C 1017.5 hPa ESE 1.6 km/h 4.8 km/h 83 % 0 mm 163 W/m2
09:22 19.7 °C 16.7 °C 1017.5 hPa ESE 8 km/h 9.7 km/h 82 % 0 mm 151 W/m2
09:37 20.3 °C 16.7 °C 1017.5 hPa SE 1.6 km/h 12.9 km/h 79 % 0 mm 206 W/m2
09:52 20.7 °C 16.7 °C 1017.2 hPa SE 8 km/h 11.3 km/h 78 % 0 mm 234 W/m2
10:07 21.4 °C 17.2 °C 1017.5 hPa SSE 6.4 km/h 11.3 km/h 76 % 0 mm 276 W/m2
10:22 21.3 °C 17.2 °C 1017.5 hPa Calm   12.9 km/h 77 % 0 mm 281 W/m2
10:37 21.4 °C 17.2 °C 1017.2 hPa Calm   12.9 km/h 77 % 0 mm 183 W/m2
10:52 21.4 °C 17.2 °C 1017.2 hPa SE 3.2 km/h 11.3 km/h 77 % 0 mm 200 W/m2
11:07 22.1 °C 17.2 °C 1016.8 hPa SE 8 km/h 12.9 km/h 75 % 0 mm 274 W/m2
11:22 22.6 °C 17.8 °C 1016.8 hPa East 1.6 km/h 16.1 km/h 73 % 0 mm 313 W/m2
11:37 23.3 °C 17.2 °C 1016.5 hPa ESE 6.4 km/h 14.5 km/h 68 % 0 mm 290 W/m2
11:52 23.3 °C 16.7 °C 1016.8 hPa SE 4.8 km/h 16.1 km/h 67 % 0 mm 276 W/m2
12:07 23.6 °C 17.2 °C 1016.8 hPa South 4.8 km/h 17.7 km/h 68 % 0 mm 418 W/m2
12:22 23.3 °C 17.2 °C 1016.5 hPa SE 4.8 km/h 19.3 km/h 68 % 0 mm 316 W/m2
12:37 24.5 °C 17.8 °C 1016.1 hPa SE 8 km/h 20.9 km/h 67 % 0 mm 937 W/m2
12:53 25.4 °C 18.3 °C 1015.8 hPa SE 12.9 km/h 17.7 km/h 65 % 0 mm 397 W/m2
13:08 25.4 °C 18.3 °C 1015.8 hPa SE 3.2 km/h 19.3 km/h 64 % 0 mm 461 W/m2
13:23 25.5 °C 17.2 °C 1015.8 hPa ESE 12.9 km/h 24.1 km/h 60 % 0 mm 645 W/m2
13:38 25.2 °C 16.7 °C 1015.8 hPa SE 1.6 km/h 19.3 km/h 59 % 0 mm 225 W/m2
13:53 24.9 °C 16.7 °C 1015.8 hPa SSW 3.2 km/h 12.9 km/h 61 % 0 mm 172 W/m2
14:08 24.7 °C 16.7 °C 1015.8 hPa SE 6.4 km/h 16.1 km/h 61 % 0 mm 211 W/m2
14:23 24.6 °C 17.2 °C 1015.1 hPa ESE 4.8 km/h 17.7 km/h 63 % 0 mm 188 W/m2
14:38 24.2 °C 18.9 °C 1015.1 hPa SE 4.8 km/h 16.1 km/h 72 % 0 mm 599 W/m2
14:53 25.4 °C 19.4 °C 1014.8 hPa SE 8 km/h 17.7 km/h 69 % 0 mm 531 W/m2
15:08 24.5 °C 17.8 °C 1014.8 hPa SSE 6.4 km/h 14.5 km/h 67 % 0 mm 281 W/m2
15:23 24.4 °C 18.3 °C 1014.8 hPa South 17.7 km/h 17.7 km/h 68 % 0 mm 243 W/m2
15:38 23.9 °C 17.2 °C 1014.4 hPa South 11.3 km/h 22.5 km/h 67 % 0 mm 276 W/m2
15:53 23.7 °C 17.2 °C 1014.4 hPa SSW 19.3 km/h 24.1 km/h 67 % 0 mm 292 W/m2
16:08 23.1 °C 16.7 °C 1014.4 hPa SW 11.3 km/h 17.7 km/h 68 % 0 mm 185 W/m2
16:23 22.8 °C 17.2 °C 1014.8 hPa SW 8 km/h 14.5 km/h 70 % 0 mm 42 W/m2
16:38 22 °C 17.2 °C 1015.1 hPa WSW 4.8 km/h 12.9 km/h 73 % 0 mm 21 W/m2
16:53 21.2 °C 17.2 °C 1015.1 hPa SW 1.6 km/h 8 km/h 77 % 0.51 mm 11 W/m2
17:08 20.6 °C 17.2 °C 1014.8 hPa SW 3.2 km/h 6.4 km/h 80 % 1.02 mm 21 W/m2
17:23 20.1 °C 17.2 °C 1014.1 hPa SW 3.2 km/h 6.4 km/h 83 % 1.27 mm 63 W/m2
17:38 20.1 °C 17.8 °C 1014.4 hPa Calm   4.8 km/h 85 % 1.27 mm 86 W/m2
17:53 20.1 °C 17.8 °C 1014.4 hPa Calm   1.6 km/h 85 % 0.76 mm 33 W/m2
18:08 20.2 °C 17.8 °C 1014.4 hPa SW 1.6 km/h 3.2 km/h 85 % 0.25 mm 30 W/m2
18:23 20.2 °C 17.8 °C 1014.4 hPa Calm   1.6 km/h 86 % 0.25 mm 26 W/m2
18:38 20.2 °C 17.8 °C 1014.4 hPa SW 1.6 km/h 6.4 km/h 86 % 0.25 mm 35 W/m2
18:53 20.1 °C 17.8 °C 1014.1 hPa Calm   8 km/h 87 % 0.76 mm 25 W/m2
19:08 19.8 °C 17.8 °C 1014.1 hPa NNE 4.8 km/h 14.5 km/h 87 % 1.02 mm 46 W/m2
19:23 19.2 °C 17.2 °C 1013.8 hPa NE 6.4 km/h 12.9 km/h 88 % 0.76 mm 28 W/m2
19:38 18.8 °C 17.2 °C 1014.1 hPa NE 8 km/h 19.3 km/h 89 % 0.76 mm 18 W/m2
19:53 18.6 °C 16.7 °C 1013.8 hPa NNE 6.4 km/h 19.3 km/h 89 % 0.25 mm 14 W/m2
20:08 18.4 °C 16.7 °C 1013.8 hPa ENE 4.8 km/h 14.5 km/h 89 % 0 mm 12 W/m2
20:23 18.3 °C 16.7 °C 1013.4 hPa East 6.4 km/h 20.9 km/h 89 % 0 mm 5 W/m2
20:38 18.2 °C 16.7 °C 1013.4 hPa NE 8 km/h 19.3 km/h 89 % 0 mm 0 W/m2
20:53 18.1 °C 16.1 °C 1013.4 hPa NE 16.1 km/h 19.3 km/h 89 % 0 mm 0 W/m2
21:08 18 °C 16.1 °C 1012.8 hPa Calm   16.1 km/h 88 % 0 mm 0 W/m2
21:23 17.9 °C 16.1 °C 1012.8 hPa Calm   12.9 km/h 88 % 0 mm 0 W/m2
21:38 17.7 °C 15.6 °C 1013.1 hPa Calm   11.3 km/h 87 % 0 mm 0 W/m2
21:53 17.6 °C 15.6 °C 1013.1 hPa Calm   12.9 km/h 87 % 0 mm 0 W/m2
22:08 17.4 °C 15.6 °C 1013.4 hPa East 3.2 km/h 9.7 km/h 88 % 0 mm 0 W/m2
22:25 17.3 °C 15.6 °C 1013.4 hPa ENE 4.8 km/h 8 km/h 88 % 0 mm 0 W/m2
22:38 17.1 °C 15 °C 1013.1 hPa ENE 4.8 km/h 8 km/h 88 % 0 mm 0 W/m2
22:53 17 °C 15 °C 1013.1 hPa Calm   6.4 km/h 88 % 0 mm 0 W/m2
23:08 17.1 °C 15 °C 1013.1 hPa ENE 3.2 km/h 8 km/h 88 % 0 mm 0 W/m2
23:23 17.1 °C 15 °C 1013.4 hPa ENE 3.2 km/h 8 km/h 88 % 0 mm 0 W/m2
23:38 17.1 °C 15.6 °C 1013.1 hPa ENE 4.8 km/h 8 km/h 89 % 0 mm 0 W/m2
23:53 17.2 °C 15.6 °C 1013.4 hPa Calm   8 km/h 89 % 0 mm 0 W/m2
Compliments of Weather Underground - 1 mb